Terminal Aerodrome Forecast
Issued by NWS

Home | Current Version | Previous Version | Text Only | Print | Product List | Glossary On
Versions: 1 2 3 4 5 6 7 8 9 10 11 12 13 14 15 16 17
000
FTUS44 KMAF 032300
TAFFST
TAF
KFST 032325Z 0400/0424 13011G19KT P6SM -SHRA BKN100
      TEMPO 0405/0409 VRB20G30KT -TSRA BKN040CB
     FM041000 15009KT P6SM BKN100
     FM041800 14020G30KT P6SM BKN040=

USA.gov is the U.S. government's official web portal to all federal, state and local government web resources and services.